sensor_id;sensor_type;location;lat;lon;timestamp;P1;durP1;ratioP1;P2;durP2;ratioP2
24635;SDS011;12772;49.794;10.024;2023-06-22T00:03:42;11.13;;;10.23;;
24635;SDS011;12772;49.794;10.024;2023-06-22T00:07:44;11.57;;;10.10;;
24635;SDS011;12772;49.794;10.024;2023-06-22T00:11:46;11.13;;;10.13;;
24635;SDS011;12772;49.794;10.024;2023-06-22T00:15:48;11.75;;;10.18;;
24635;SDS011;12772;49.794;10.024;2023-06-22T00:19:50;11.23;;;10.23;;
24635;SDS011;12772;49.794;10.024;2023-06-22T00:23:55;11.52;;;10.43;;
24635;SDS011;12772;49.794;10.024;2023-06-22T00:27:57;10.13;;;9.30;;
24635;SDS011;12772;49.794;10.024;2023-06-22T00:31:59;10.55;;;9.65;;
24635;SDS011;12772;49.794;10.024;2023-06-22T00:36:01;11.32;;;10.23;;
24635;SDS011;12772;49.794;10.024;2023-06-22T00:40:04;13.45;;;12.07;;
24635;SDS011;12772;49.794;10.024;2023-06-22T00:44:09;15.05;;;10.68;;
24635;SDS011;12772;49.794;10.024;2023-06-22T00:48:11;10.70;;;9.52;;
24635;SDS011;12772;49.794;10.024;2023-06-22T00:52:14;14.68;;;10.23;;
24635;SDS011;12772;49.794;10.024;2023-06-22T00:56:21;12.75;;;10.35;;
24635;SDS011;12772;49.794;10.024;2023-06-22T01:00:25;12.45;;;11.25;;
24635;SDS011;12772;49.794;10.024;2023-06-22T01:04:33;12.15;;;9.60;;
24635;SDS011;12772;49.794;10.024;2023-06-22T01:08:48;11.55;;;10.38;;
24635;SDS011;12772;49.794;10.024;2023-06-22T01:12:56;13.13;;;11.98;;
24635;SDS011;12772;49.794;10.024;2023-06-22T01:17:08;13.35;;;11.23;;
24635;SDS011;12772;49.794;10.024;2023-06-22T01:21:14;13.18;;;11.45;;
24635;SDS011;12772;49.794;10.024;2023-06-22T01:25:20;12.30;;;10.73;;
24635;SDS011;12772;49.794;10.024;2023-06-22T01:29:24;12.57;;;10.80;;
24635;SDS011;12772;49.794;10.024;2023-06-22T01:33:29;12.30;;;11.32;;
24635;SDS011;12772;49.794;10.024;2023-06-22T01:37:37;17.20;;;12.55;;
24635;SDS011;12772;49.794;10.024;2023-06-22T01:41:40;13.18;;;11.43;;
24635;SDS011;12772;49.794;10.024;2023-06-22T01:45:44;12.77;;;11.48;;
24635;SDS011;12772;49.794;10.024;2023-06-22T01:49:46;12.88;;;11.57;;
24635;SDS011;12772;49.794;10.024;2023-06-22T01:53:48;10.93;;;9.93;;
24635;SDS011;12772;49.794;10.024;2023-06-22T01:57:50;13.60;;;12.07;;
24635;SDS011;12772;49.794;10.024;2023-06-22T02:01:54;13.65;;;12.35;;
24635;SDS011;12772;49.794;10.024;2023-06-22T02:06:14;15.32;;;13.88;;
24635;SDS011;12772;49.794;10.024;2023-06-22T02:10:21;16.58;;;14.63;;
24635;SDS011;12772;49.794;10.024;2023-06-22T02:14:24;14.20;;;12.95;;
24635;SDS011;12772;49.794;10.024;2023-06-22T02:18:27;14.20;;;12.80;;
24635;SDS011;12772;49.794;10.024;2023-06-22T02:22:29;12.93;;;11.63;;
24635;SDS011;12772;49.794;10.024;2023-06-22T02:26:31;12.95;;;9.85;;
24635;SDS011;12772;49.794;10.024;2023-06-22T02:30:34;11.55;;;10.40;;
24635;SDS011;12772;49.794;10.024;2023-06-22T02:34:36;10.52;;;9.70;;
24635;SDS011;12772;49.794;10.024;2023-06-22T02:38:42;10.40;;;9.50;;
24635;SDS011;12772;49.794;10.024;2023-06-22T02:42:48;12.88;;;11.68;;
24635;SDS011;12772;49.794;10.024;2023-06-22T02:46:50;12.43;;;11.30;;
24635;SDS011;12772;49.794;10.024;2023-06-22T02:50:54;15.05;;;13.55;;
24635;SDS011;12772;49.794;10.024;2023-06-22T02:54:56;14.15;;;12.95;;
24635;SDS011;12772;49.794;10.024;2023-06-22T02:58:58;18.35;;;16.60;;
24635;SDS011;12772;49.794;10.024;2023-06-22T03:03:01;18.48;;;16.75;;
24635;SDS011;12772;49.794;10.024;2023-06-22T03:07:03;15.48;;;14.18;;
24635;SDS011;12772;49.794;10.024;2023-06-22T03:11:06;18.50;;;16.90;;
24635;SDS011;12772;49.794;10.024;2023-06-22T03:15:09;15.35;;;13.93;;
24635;SDS011;12772;49.794;10.024;2023-06-22T03:19:13;15.82;;;13.60;;
24635;SDS011;12772;49.794;10.024;2023-06-22T03:23:15;16.30;;;14.90;;
24635;SDS011;12772;49.794;10.024;2023-06-22T03:27:17;14.75;;;13.35;;
24635;SDS011;12772;49.794;10.024;2023-06-22T03:31:20;14.35;;;12.98;;
24635;SDS011;12772;49.794;10.024;2023-06-22T03:35:22;13.32;;;12.23;;
24635;SDS011;12772;49.794;10.024;2023-06-22T03:39:24;14.25;;;12.70;;
24635;SDS011;12772;49.794;10.024;2023-06-22T03:43:26;15.93;;;13.57;;
24635;SDS011;12772;49.794;10.024;2023-06-22T03:47:28;15.02;;;13.80;;
24635;SDS011;12772;49.794;10.024;2023-06-22T03:51:30;13.55;;;12.25;;
24635;SDS011;12772;49.794;10.024;2023-06-22T03:55:34;12.98;;;11.88;;
24635;SDS011;12772;49.794;10.024;2023-06-22T03:59:36;14.00;;;12.63;;
24635;SDS011;12772;49.794;10.024;2023-06-22T04:03:38;13.25;;;11.93;;
24635;SDS011;12772;49.794;10.024;2023-06-22T04:07:41;14.02;;;12.70;;
24635;SDS011;12772;49.794;10.024;2023-06-22T04:11:43;14.95;;;13.43;;
24635;SDS011;12772;49.794;10.024;2023-06-22T04:15:45;13.77;;;12.65;;
24635;SDS011;12772;49.794;10.024;2023-06-22T04:19:47;13.43;;;12.23;;
24635;SDS011;12772;49.794;10.024;2023-06-22T04:23:49;14.43;;;13.23;;
24635;SDS011;12772;49.794;10.024;2023-06-22T04:27:51;14.30;;;13.05;;
24635;SDS011;12772;49.794;10.024;2023-06-22T04:31:53;14.05;;;12.82;;
24635;SDS011;12772;49.794;10.024;2023-06-22T04:35:56;13.00;;;11.90;;
24635;SDS011;12772;49.794;10.024;2023-06-22T04:39:59;14.02;;;12.85;;
24635;SDS011;12772;49.794;10.024;2023-06-22T04:44:01;13.90;;;12.35;;
24635;SDS011;12772;49.794;10.024;2023-06-22T04:48:05;14.15;;;12.95;;
24635;SDS011;12772;49.794;10.024;2023-06-22T04:52:21;12.77;;;11.68;;
24635;SDS011;12772;49.794;10.024;2023-06-22T04:56:25;13.35;;;12.25;;
24635;SDS011;12772;49.794;10.024;2023-06-22T05:00:28;12.85;;;11.85;;
24635;SDS011;12772;49.794;10.024;2023-06-22T05:04:30;13.40;;;12.23;;
24635;SDS011;12772;49.794;10.024;2023-06-22T05:08:33;13.57;;;12.38;;
24635;SDS011;12772;49.794;10.024;2023-06-22T05:12:35;12.60;;;11.60;;
24635;SDS011;12772;49.794;10.024;2023-06-22T05:16:38;13.35;;;12.00;;
24635;SDS011;12772;49.794;10.024;2023-06-22T05:20:40;11.57;;;10.65;;
24635;SDS011;12772;49.794;10.024;2023-06-22T05:24:42;15.15;;;13.85;;
24635;SDS011;12772;49.794;10.024;2023-06-22T05:28:45;13.02;;;11.93;;
24635;SDS011;12772;49.794;10.024;2023-06-22T05:32:48;14.40;;;12.88;;
24635;SDS011;12772;49.794;10.024;2023-06-22T05:36:50;11.70;;;10.52;;
24635;SDS011;12772;49.794;10.024;2023-06-22T05:40:52;13.32;;;12.02;;
24635;SDS011;12772;49.794;10.024;2023-06-22T05:44:54;10.57;;;9.80;;
24635;SDS011;12772;49.794;10.024;2023-06-22T05:48:56;14.02;;;12.70;;
24635;SDS011;12772;49.794;10.024;2023-06-22T05:52:58;13.55;;;12.13;;
24635;SDS011;12772;49.794;10.024;2023-06-22T05:57:00;15.05;;;13.68;;
24635;SDS011;12772;49.794;10.024;2023-06-22T06:01:02;12.15;;;11.25;;
24635;SDS011;12772;49.794;10.024;2023-06-22T06:09:17;11.85;;;10.85;;
24635;SDS011;12772;49.794;10.024;2023-06-22T06:13:20;12.52;;;11.45;;
24635;SDS011;12772;49.794;10.024;2023-06-22T06:17:22;13.63;;;12.25;;
24635;SDS011;12772;49.794;10.024;2023-06-22T06:21:24;12.50;;;11.40;;
24635;SDS011;12772;49.794;10.024;2023-06-22T06:25:26;14.35;;;12.95;;
24635;SDS011;12772;49.794;10.024;2023-06-22T06:29:28;12.50;;;11.57;;
24635;SDS011;12772;49.794;10.024;2023-06-22T06:33:30;13.48;;;12.05;;
24635;SDS011;12772;49.794;10.024;2023-06-22T06:37:35;13.20;;;12.07;;
24635;SDS011;12772;49.794;10.024;2023-06-22T06:41:38;14.98;;;13.65;;
24635;SDS011;12772;49.794;10.024;2023-06-22T08:11:05;12.77;;;11.57;;
24635;SDS011;12772;49.794;10.024;2023-06-22T08:15:07;11.85;;;10.65;;
24635;SDS011;12772;49.794;10.024;2023-06-22T08:19:10;10.38;;;9.40;;
24635;SDS011;12772;49.794;10.024;2023-06-22T08:23:12;10.50;;;9.60;;
24635;SDS011;12772;49.794;10.024;2023-06-22T08:27:14;9.30;;;8.50;;
24635;SDS011;12772;49.794;10.024;2023-06-22T08:31:18;9.35;;;8.40;;
24635;SDS011;12772;49.794;10.024;2023-06-22T08:35:23;8.63;;;7.93;;
24635;SDS011;12772;49.794;10.024;2023-06-22T08:39:26;7.93;;;7.30;;
24635;SDS011;12772;49.794;10.024;2023-06-22T08:43:28;9.60;;;8.35;;
24635;SDS011;12772;49.794;10.024;2023-06-22T08:47:30;8.65;;;7.88;;
24635;SDS011;12772;49.794;10.024;2023-06-22T08:51:32;8.40;;;7.80;;
24635;SDS011;12772;49.794;10.024;2023-06-22T08:55:34;9.80;;;8.40;;
24635;SDS011;12772;49.794;10.024;2023-06-22T08:59:36;9.20;;;8.40;;
24635;SDS011;12772;49.794;10.024;2023-06-22T09:03:38;8.57;;;7.75;;
24635;SDS011;12772;49.794;10.024;2023-06-22T09:07:40;8.02;;;7.43;;
24635;SDS011;12772;49.794;10.024;2023-06-22T09:11:43;8.30;;;7.65;;
24635;SDS011;12772;49.794;10.024;2023-06-22T09:15:46;8.20;;;7.50;;
24635;SDS011;12772;49.794;10.024;2023-06-22T09:19:48;8.18;;;6.82;;
24635;SDS011;12772;49.794;10.024;2023-06-22T09:23:50;8.02;;;7.22;;
24635;SDS011;12772;49.794;10.024;2023-06-22T09:27:53;7.97;;;7.38;;
24635;SDS011;12772;49.794;10.024;2023-06-22T09:31:55;7.95;;;7.03;;
24635;SDS011;12772;49.794;10.024;2023-06-22T09:35:57;7.68;;;6.97;;
24635;SDS011;12772;49.794;10.024;2023-06-22T09:39:59;7.72;;;7.03;;
24635;SDS011;12772;49.794;10.024;2023-06-22T09:44:01;7.47;;;6.18;;
24635;SDS011;12772;49.794;10.024;2023-06-22T09:48:03;6.55;;;5.75;;
24635;SDS011;12772;49.794;10.024;2023-06-22T09:52:05;5.90;;;5.40;;
24635;SDS011;12772;49.794;10.024;2023-06-22T09:56:09;6.10;;;5.60;;
24635;SDS011;12772;49.794;10.024;2023-06-22T10:00:16;5.97;;;5.38;;
24635;SDS011;12772;49.794;10.024;2023-06-22T10:04:19;6.32;;;5.72;;
24635;SDS011;12772;49.794;10.024;2023-06-22T10:08:21;6.65;;;6.15;;
24635;SDS011;12772;49.794;10.024;2023-06-22T10:12:23;8.23;;;6.43;;
24635;SDS011;12772;49.794;10.024;2023-06-22T10:16:30;6.05;;;5.65;;
24635;SDS011;12772;49.794;10.024;2023-06-22T10:20:33;6.30;;;5.80;;
24635;SDS011;12772;49.794;10.024;2023-06-22T10:24:35;7.35;;;5.88;;
24635;SDS011;12772;49.794;10.024;2023-06-22T10:28:38;7.63;;;6.38;;
24635;SDS011;12772;49.794;10.024;2023-06-22T10:32:41;6.30;;;5.80;;
24635;SDS011;12772;49.794;10.024;2023-06-22T10:36:44;7.47;;;5.95;;
24635;SDS011;12772;49.794;10.024;2023-06-22T10:40:48;6.15;;;5.55;;
24635;SDS011;12772;49.794;10.024;2023-06-22T10:44:51;6.40;;;5.80;;
24635;SDS011;12772;49.794;10.024;2023-06-22T10:48:53;6.65;;;6.00;;
24635;SDS011;12772;49.794;10.024;2023-06-22T10:52:57;6.03;;;5.53;;
24635;SDS011;12772;49.794;10.024;2023-06-22T10:56:59;6.15;;;5.65;;
24635;SDS011;12772;49.794;10.024;2023-06-22T11:01:02;7.32;;;5.82;;
24635;SDS011;12772;49.794;10.024;2023-06-22T11:05:04;9.20;;;5.97;;
24635;SDS011;12772;49.794;10.024;2023-06-22T11:09:06;9.15;;;6.18;;
24635;SDS011;12772;49.794;10.024;2023-06-22T11:13:09;6.63;;;6.03;;
24635;SDS011;12772;49.794;10.024;2023-06-22T11:17:11;8.18;;;5.72;;
24635;SDS011;12772;49.794;10.024;2023-06-22T11:21:13;10.40;;;6.15;;
24635;SDS011;12772;49.794;10.024;2023-06-22T11:25:15;8.10;;;5.75;;
24635;SDS011;12772;49.794;10.024;2023-06-22T11:29:17;8.30;;;5.80;;
24635;SDS011;12772;49.794;10.024;2023-06-22T11:33:19;6.45;;;5.28;;
24635;SDS011;12772;49.794;10.024;2023-06-22T11:37:21;6.00;;;5.43;;
24635;SDS011;12772;49.794;10.024;2023-06-22T11:41:23;8.40;;;5.55;;
24635;SDS011;12772;49.794;10.024;2023-06-22T11:45:25;8.48;;;6.07;;
24635;SDS011;12772;49.794;10.024;2023-06-22T11:49:28;7.55;;;6.18;;
24635;SDS011;12772;49.794;10.024;2023-06-22T11:53:30;8.43;;;5.70;;
24635;SDS011;12772;49.794;10.024;2023-06-22T11:57:33;6.25;;;5.47;;
24635;SDS011;12772;49.794;10.024;2023-06-22T12:01:36;6.05;;;5.55;;
24635;SDS011;12772;49.794;10.024;2023-06-22T12:05:39;9.98;;;5.85;;
24635;SDS011;12772;49.794;10.024;2023-06-22T12:09:41;5.85;;;5.32;;
24635;SDS011;12772;49.794;10.024;2023-06-22T12:13:43;8.40;;;5.80;;
24635;SDS011;12772;49.794;10.024;2023-06-22T12:17:45;5.45;;;4.88;;
24635;SDS011;12772;49.794;10.024;2023-06-22T12:21:48;7.85;;;6.13;;
24635;SDS011;12772;49.794;10.024;2023-06-22T12:25:50;9.25;;;6.30;;
24635;SDS011;12772;49.794;10.024;2023-06-22T12:29:52;5.80;;;4.85;;
24635;SDS011;12772;49.794;10.024;2023-06-22T12:33:54;7.80;;;5.82;;
24635;SDS011;12772;49.794;10.024;2023-06-22T12:37:56;9.48;;;5.80;;
24635;SDS011;12772;49.794;10.024;2023-06-22T12:41:58;6.47;;;5.75;;
24635;SDS011;12772;49.794;10.024;2023-06-22T12:46:00;11.02;;;6.55;;
24635;SDS011;12772;49.794;10.024;2023-06-22T12:50:03;9.98;;;6.25;;
24635;SDS011;12772;49.794;10.024;2023-06-22T12:54:05;7.10;;;6.10;;
24635;SDS011;12772;49.794;10.024;2023-06-22T12:58:07;9.70;;;5.93;;
24635;SDS011;12772;49.794;10.024;2023-06-22T13:02:09;9.95;;;5.97;;
24635;SDS011;12772;49.794;10.024;2023-06-22T13:06:11;11.10;;;6.05;;
24635;SDS011;12772;49.794;10.024;2023-06-22T13:10:13;9.55;;;6.35;;
24635;SDS011;12772;49.794;10.024;2023-06-22T13:14:15;9.80;;;6.50;;
24635;SDS011;12772;49.794;10.024;2023-06-22T13:18:17;10.73;;;5.85;;
24635;SDS011;12772;49.794;10.024;2023-06-22T13:22:26;12.00;;;6.22;;
24635;SDS011;12772;49.794;10.024;2023-06-22T13:26:40;9.02;;;5.55;;
24635;SDS011;12772;49.794;10.024;2023-06-22T13:30:42;7.22;;;6.05;;
24635;SDS011;12772;49.794;10.024;2023-06-22T13:34:46;9.23;;;6.07;;
24635;SDS011;12772;49.794;10.024;2023-06-22T13:38:48;8.60;;;6.05;;
24635;SDS011;12772;49.794;10.024;2023-06-22T13:42:51;10.63;;;6.25;;
24635;SDS011;12772;49.794;10.024;2023-06-22T13:46:53;7.72;;;6.05;;
24635;SDS011;12772;49.794;10.024;2023-06-22T13:50:55;6.75;;;5.95;;
24635;SDS011;12772;49.794;10.024;2023-06-22T13:54:58;11.07;;;6.53;;
24635;SDS011;12772;49.794;10.024;2023-06-22T13:59:00;7.50;;;5.65;;
24635;SDS011;12772;49.794;10.024;2023-06-22T14:03:02;10.57;;;5.85;;
24635;SDS011;12772;49.794;10.024;2023-06-22T14:07:05;10.52;;;6.05;;
24635;SDS011;12772;49.794;10.024;2023-06-22T14:11:07;7.50;;;5.90;;
24635;SDS011;12772;49.794;10.024;2023-06-22T14:15:09;6.70;;;5.70;;
24635;SDS011;12772;49.794;10.024;2023-06-22T14:19:11;7.10;;;5.32;;
24635;SDS011;12772;49.794;10.024;2023-06-22T14:23:14;10.20;;;6.57;;
24635;SDS011;12772;49.794;10.024;2023-06-22T14:27:16;7.97;;;5.20;;
24635;SDS011;12772;49.794;10.024;2023-06-22T14:31:18;6.97;;;5.43;;
24635;SDS011;12772;49.794;10.024;2023-06-22T14:35:20;8.52;;;5.82;;
24635;SDS011;12772;49.794;10.024;2023-06-22T14:39:22;8.60;;;5.35;;
24635;SDS011;12772;49.794;10.024;2023-06-22T14:43:24;7.55;;;5.30;;
24635;SDS011;12772;49.794;10.024;2023-06-22T14:47:26;6.13;;;5.43;;
24635;SDS011;12772;49.794;10.024;2023-06-22T14:51:29;8.43;;;5.13;;
24635;SDS011;12772;49.794;10.024;2023-06-22T14:55:31;11.30;;;5.38;;
24635;SDS011;12772;49.794;10.024;2023-06-22T14:59:33;11.13;;;5.07;;
24635;SDS011;12772;49.794;10.024;2023-06-22T15:03:35;7.75;;;5.53;;
24635;SDS011;12772;49.794;10.024;2023-06-22T15:07:37;6.20;;;4.45;;
24635;SDS011;12772;49.794;10.024;2023-06-22T15:11:39;9.80;;;4.82;;
24635;SDS011;12772;49.794;10.024;2023-06-22T15:15:41;11.38;;;5.55;;
24635;SDS011;12772;49.794;10.024;2023-06-22T15:19:43;11.60;;;5.10;;
24635;SDS011;12772;49.794;10.024;2023-06-22T15:23:45;11.45;;;5.68;;
24635;SDS011;12772;49.794;10.024;2023-06-22T15:27:48;19.80;;;6.07;;
24635;SDS011;12772;49.794;10.024;2023-06-22T15:31:51;12.48;;;5.45;;
24635;SDS011;12772;49.794;10.024;2023-06-22T15:35:53;13.90;;;4.93;;
24635;SDS011;12772;49.794;10.024;2023-06-22T15:39:56;19.52;;;6.93;;
24635;SDS011;12772;49.794;10.024;2023-06-22T15:43:59;17.90;;;6.38;;
24635;SDS011;12772;49.794;10.024;2023-06-22T15:48:01;21.30;;;6.20;;
24635;SDS011;12772;49.794;10.024;2023-06-22T15:52:03;21.08;;;5.50;;
24635;SDS011;12772;49.794;10.024;2023-06-22T15:56:05;12.75;;;4.50;;
24635;SDS011;12772;49.794;10.024;2023-06-22T16:00:09;9.57;;;4.78;;
24635;SDS011;12772;49.794;10.024;2023-06-22T16:04:14;8.38;;;4.97;;
24635;SDS011;12772;49.794;10.024;2023-06-22T16:08:16;7.05;;;4.53;;
24635;SDS011;12772;49.794;10.024;2023-06-22T16:12:18;8.00;;;4.95;;
24635;SDS011;12772;49.794;10.024;2023-06-22T16:16:20;13.00;;;4.75;;
24635;SDS011;12772;49.794;10.024;2023-06-22T16:20:22;8.40;;;4.53;;
24635;SDS011;12772;49.794;10.024;2023-06-22T16:24:24;10.25;;;4.55;;
24635;SDS011;12772;49.794;10.024;2023-06-22T16:28:26;11.00;;;4.78;;
24635;SDS011;12772;49.794;10.024;2023-06-22T16:32:28;12.85;;;4.43;;
24635;SDS011;12772;49.794;10.024;2023-06-22T16:36:31;9.27;;;4.20;;
24635;SDS011;12772;49.794;10.024;2023-06-22T16:40:33;10.18;;;4.55;;
24635;SDS011;12772;49.794;10.024;2023-06-22T16:44:35;10.95;;;4.55;;
24635;SDS011;12772;49.794;10.024;2023-06-22T16:48:38;7.85;;;4.43;;
24635;SDS011;12772;49.794;10.024;2023-06-22T16:52:40;9.73;;;4.63;;
24635;SDS011;12772;49.794;10.024;2023-06-22T16:56:43;8.15;;;4.05;;
24635;SDS011;12772;49.794;10.024;2023-06-22T17:00:47;10.73;;;4.60;;
24635;SDS011;12772;49.794;10.024;2023-06-22T17:04:52;9.35;;;4.85;;
24635;SDS011;12772;49.794;10.024;2023-06-22T17:08:56;9.75;;;4.65;;
24635;SDS011;12772;49.794;10.024;2023-06-22T17:13:02;8.95;;;4.50;;
24635;SDS011;12772;49.794;10.024;2023-06-22T17:17:05;7.85;;;3.90;;
24635;SDS011;12772;49.794;10.024;2023-06-22T17:21:07;11.55;;;4.75;;
24635;SDS011;12772;49.794;10.024;2023-06-22T17:25:13;6.53;;;4.03;;
24635;SDS011;12772;49.794;10.024;2023-06-22T17:29:17;10.93;;;4.90;;
24635;SDS011;12772;49.794;10.024;2023-06-22T17:33:20;9.18;;;4.55;;
24635;SDS011;12772;49.794;10.024;2023-06-22T17:37:23;7.15;;;4.30;;
24635;SDS011;12772;49.794;10.024;2023-06-22T17:41:33;6.93;;;4.63;;
24635;SDS011;12772;49.794;10.024;2023-06-22T17:45:42;6.93;;;4.82;;
24635;SDS011;12772;49.794;10.024;2023-06-22T17:49:45;5.05;;;3.75;;
24635;SDS011;12772;49.794;10.024;2023-06-22T17:53:48;8.73;;;4.55;;
24635;SDS011;12772;49.794;10.024;2023-06-22T17:57:57;6.75;;;4.55;;
24635;SDS011;12772;49.794;10.024;2023-06-22T18:02:42;12.38;;;5.18;;
24635;SDS011;12772;49.794;10.024;2023-06-22T18:06:45;11.90;;;5.13;;
24635;SDS011;12772;49.794;10.024;2023-06-22T18:10:48;8.18;;;5.07;;
24635;SDS011;12772;49.794;10.024;2023-06-22T18:14:50;10.23;;;4.95;;
24635;SDS011;12772;49.794;10.024;2023-06-22T18:18:54;10.90;;;5.65;;
24635;SDS011;12772;49.794;10.024;2023-06-22T18:22:58;5.65;;;4.90;;
24635;SDS011;12772;49.794;10.024;2023-06-22T18:27:01;8.95;;;4.70;;
24635;SDS011;12772;49.794;10.024;2023-06-22T18:31:05;9.27;;;4.78;;
24635;SDS011;12772;49.794;10.024;2023-06-22T18:35:08;9.63;;;5.05;;
24635;SDS011;12772;49.794;10.024;2023-06-22T18:39:11;6.47;;;5.03;;
24635;SDS011;12772;49.794;10.024;2023-06-22T18:43:20;8.45;;;5.22;;
24635;SDS011;12772;49.794;10.024;2023-06-22T18:47:27;10.32;;;4.97;;
24635;SDS011;12772;49.794;10.024;2023-06-22T18:51:30;9.30;;;4.80;;
24635;SDS011;12772;49.794;10.024;2023-06-22T18:55:50;9.75;;;5.00;;
24635;SDS011;12772;49.794;10.024;2023-06-22T19:03:56;14.73;;;5.55;;
24635;SDS011;12772;49.794;10.024;2023-06-22T19:08:00;7.97;;;5.18;;
24635;SDS011;12772;49.794;10.024;2023-06-22T19:16:18;6.65;;;5.13;;
24635;SDS011;12772;49.794;10.024;2023-06-22T19:20:31;9.98;;;4.95;;
24635;SDS011;12772;49.794;10.024;2023-06-22T19:24:50;7.78;;;4.78;;
24635;SDS011;12772;49.794;10.024;2023-06-22T19:28:54;10.65;;;5.05;;
24635;SDS011;12772;49.794;10.024;2023-06-22T19:32:57;8.57;;;4.63;;
24635;SDS011;12772;49.794;10.024;2023-06-22T19:37:00;7.68;;;5.00;;
24635;SDS011;12772;49.794;10.024;2023-06-22T19:41:06;7.38;;;4.55;;
24635;SDS011;12772;49.794;10.024;2023-06-22T19:45:09;7.07;;;5.30;;
24635;SDS011;12772;49.794;10.024;2023-06-22T19:49:15;11.13;;;5.13;;
24635;SDS011;12772;49.794;10.024;2023-06-22T19:53:18;7.43;;;4.88;;
24635;SDS011;12772;49.794;10.024;2023-06-22T19:57:20;11.23;;;5.45;;
24635;SDS011;12772;49.794;10.024;2023-06-22T20:01:22;16.20;;;7.32;;
24635;SDS011;12772;49.794;10.024;2023-06-22T20:05:24;12.00;;;7.20;;
24635;SDS011;12772;49.794;10.024;2023-06-22T20:09:26;14.45;;;6.07;;
24635;SDS011;12772;49.794;10.024;2023-06-22T20:13:29;9.63;;;5.97;;
24635;SDS011;12772;49.794;10.024;2023-06-22T20:17:35;16.27;;;5.82;;
24635;SDS011;12772;49.794;10.024;2023-06-22T20:21:47;13.68;;;6.07;;
24635;SDS011;12772;49.794;10.024;2023-06-22T20:25:49;9.80;;;5.85;;
24635;SDS011;12772;49.794;10.024;2023-06-22T20:29:54;10.55;;;5.95;;
24635;SDS011;12772;49.794;10.024;2023-06-22T20:34:02;11.18;;;6.38;;
24635;SDS011;12772;49.794;10.024;2023-06-22T20:38:05;9.70;;;5.82;;
24635;SDS011;12772;49.794;10.024;2023-06-22T20:42:07;9.80;;;5.85;;
24635;SDS011;12772;49.794;10.024;2023-06-22T20:46:12;9.95;;;5.75;;
24635;SDS011;12772;49.794;10.024;2023-06-22T20:50:14;9.60;;;5.47;;
24635;SDS011;12772;49.794;10.024;2023-06-22T20:54:16;13.48;;;6.05;;
24635;SDS011;12772;49.794;10.024;2023-06-22T20:58:18;9.80;;;6.90;;
24635;SDS011;12772;49.794;10.024;2023-06-22T21:02:20;9.27;;;6.18;;
24635;SDS011;12772;49.794;10.024;2023-06-22T21:06:23;14.00;;;6.88;;
24635;SDS011;12772;49.794;10.024;2023-06-22T21:10:25;9.68;;;6.13;;
24635;SDS011;12772;49.794;10.024;2023-06-22T21:14:27;11.50;;;6.38;;
24635;SDS011;12772;49.794;10.024;2023-06-22T21:18:29;9.80;;;6.28;;
24635;SDS011;12772;49.794;10.024;2023-06-22T21:22:32;12.18;;;6.45;;
24635;SDS011;12772;49.794;10.024;2023-06-22T21:26:34;14.80;;;6.28;;
24635;SDS011;12772;49.794;10.024;2023-06-22T21:30:36;9.02;;;6.10;;
24635;SDS011;12772;49.794;10.024;2023-06-22T21:34:38;8.60;;;6.10;;
24635;SDS011;12772;49.794;10.024;2023-06-22T21:38:40;8.57;;;5.25;;
24635;SDS011;12772;49.794;10.024;2023-06-22T21:42:42;9.07;;;5.53;;
24635;SDS011;12772;49.794;10.024;2023-06-22T21:46:44;11.50;;;6.72;;
24635;SDS011;12772;49.794;10.024;2023-06-22T21:50:46;9.85;;;5.78;;
24635;SDS011;12772;49.794;10.024;2023-06-22T21:54:48;8.55;;;5.80;;
24635;SDS011;12772;49.794;10.024;2023-06-22T21:58:50;9.15;;;6.05;;
24635;SDS011;12772;49.794;10.024;2023-06-22T22:02:52;8.77;;;5.43;;
24635;SDS011;12772;49.794;10.024;2023-06-22T22:06:54;7.85;;;5.35;;
24635;SDS011;12772;49.794;10.024;2023-06-22T22:10:56;10.23;;;6.18;;
24635;SDS011;12772;49.794;10.024;2023-06-22T22:14:58;9.57;;;4.88;;
24635;SDS011;12772;49.794;10.024;2023-06-22T22:19:00;9.77;;;5.05;;
24635;SDS011;12772;49.794;10.024;2023-06-22T22:23:02;6.38;;;4.95;;
24635;SDS011;12772;49.794;10.024;2023-06-22T22:27:05;7.40;;;5.47;;
24635;SDS011;12772;49.794;10.024;2023-06-22T22:31:07;6.70;;;4.97;;
24635;SDS011;12772;49.794;10.024;2023-06-22T22:35:09;5.13;;;4.28;;
24635;SDS011;12772;49.794;10.024;2023-06-22T22:39:13;6.07;;;4.43;;
24635;SDS011;12772;49.794;10.024;2023-06-22T22:43:30;7.57;;;4.22;;
24635;SDS011;12772;49.794;10.024;2023-06-22T22:47:33;7.05;;;4.63;;
24635;SDS011;12772;49.794;10.024;2023-06-22T22:51:35;5.63;;;4.00;;
24635;SDS011;12772;49.794;10.024;2023-06-22T22:55:37;7.05;;;3.95;;
24635;SDS011;12772;49.794;10.024;2023-06-22T22:59:39;6.68;;;3.92;;
24635;SDS011;12772;49.794;10.024;2023-06-22T23:03:41;6.32;;;4.43;;
24635;SDS011;12772;49.794;10.024;2023-06-22T23:07:43;7.18;;;3.47;;
24635;SDS011;12772;49.794;10.024;2023-06-22T23:11:46;2.63;;;1.90;;
24635;SDS011;12772;49.794;10.024;2023-06-22T23:15:48;6.15;;;2.72;;
24635;SDS011;12772;49.794;10.024;2023-06-22T23:19:52;1.35;;;1.25;;
24635;SDS011;12772;49.794;10.024;2023-06-22T23:23:54;2.95;;;1.35;;
24635;SDS011;12772;49.794;10.024;2023-06-22T23:27:56;2.50;;;1.50;;
24635;SDS011;12772;49.794;10.024;2023-06-22T23:31:58;2.95;;;1.40;;
24635;SDS011;12772;49.794;10.024;2023-06-22T23:36:01;3.20;;;1.40;;
24635;SDS011;12772;49.794;10.024;2023-06-22T23:40:05;1.20;;;1.10;;
24635;SDS011;12772;49.794;10.024;2023-06-22T23:44:16;1.20;;;1.20;;
24635;SDS011;12772;49.794;10.024;2023-06-22T23:48:18;1.10;;;1.00;;
24635;SDS011;12772;49.794;10.024;2023-06-22T23:52:21;1.40;;;1.30;;
24635;SDS011;12772;49.794;10.024;2023-06-22T23:56:23;1.10;;;1.10;;
